• Join FlightAware (Why Join?)
  • Login
  • US Flag 
09:27AM EDT


 

Airport Tracker/Info


-or-


 

Live Flight TrackerFlight Track Log ✈ AAL832 ✈ 02-May-2013 ✈ KLAX - KORD

Flight Track Log - Related Links

Times and Time Zones

All times are in EDT time to prevent confusion due to time zone crossing. See the AAL832 flight status page for this flight to view local times or setup timezone preferences in your user account.

Time Position Orientation Groundspeed Altitude Reporting Facility
EDT Latitude Longitude Course Direction KTS MPH feet Rate Location/Type
12:16PM 33.9167 -118.5000 103° East 247 284 3,200  Level Southern California TRACON
12:17PM 33.7667 -118.0083 90° East  Level FlightAware Approximate
12:17PM 33.8667 -118.5667 228° Southwest 282 325 6,200  Level Southern California TRACON
12:18PM 33.7667 -117.8560 90° East  Level FlightAware Approximate
12:18PM 33.7836 -118.5414 166° South 277 319 9,300  Level Los Angeles Center
12:19PM 33.7441 -117.7072 97° East  Level FlightAware Approximate
12:19PM 33.7011 -118.5078 161° South 325 374 11,100  Level Los Angeles Center
12:20PM 33.7333 -117.5557 90° East  Level FlightAware Approximate
12:20PM 33.6681 -118.3906 109° East 329 379 14,300  Level Los Angeles Center
12:21PM 33.7181 -117.4071 103° East  Level FlightAware Approximate
12:21PM 33.6667 -118.2700 91° East 369 425 15,500  Level Los Angeles Center
12:22PM 33.6647 -118.1364 91° East 404 465 17,500 2,040 Climbing Los Angeles Center
12:23PM 33.6631 -117.9683 91° East 422 486 19,800 1,980 Climbing Los Angeles Center
12:24PM 33.6608 -117.8200 91° East 443 510 21,700 1,500 Climbing Los Angeles Center
12:25PM 33.6594 -117.6983 91° East 455 524 23,000 1,560 Climbing Los Angeles Center
12:26PM 33.6567 -117.5100 91° East 472 543 25,000 1,680 Climbing Los Angeles Center
12:27PM 33.6553 -117.3478 91° East 484 557 26,500 1,560 Climbing Los Angeles Center
12:28PM 33.6519 -117.1844 91° East 490 564 28,300 1,980 Climbing Los Angeles Center
12:29PM 33.6492 -116.9886 91° East 491 565 30,700 1,980 Climbing Los Angeles Center
12:30PM 33.6475 -116.8283 91° East 484 557 32,500 1,560 Climbing Los Angeles Center
12:31PM 33.6814 -116.6625 76° East 476 548 34,000 1,500 Climbing Los Angeles Center
12:32PM 33.7142 -116.5083 76° East 473 544 35,600 1,260 Climbing Los Angeles Center
12:33PM 33.7461 -116.3547 76° East 474 545 36,700 960 Climbing Los Angeles Center
12:35PM 33.7775 -116.2008 76° East 473 544 37,700 840 Climbing Los Angeles Center
12:36PM 33.8106 -116.0478 75° East 472 543 38,500 600 Climbing Los Angeles Center
12:37PM 33.8372 -115.9261 75° East 471 542 39,000 240 Climbing Los Angeles Center
12:38PM 33.8825 -115.7131 76° East 471 542 39,000  Level Los Angeles Center
12:39PM 33.9147 -115.5586 76° East 476 548 39,000  Level Los Angeles Center
12:40PM 33.9483 -115.4039 75° East 477 549 39,000  Level Los Angeles Center
12:41PM 33.9811 -115.2492 76° East 477 549 39,000  Level Los Angeles Center
12:42PM 34.0136 -115.0928 76° East 480 552 39,000  Level Los Angeles Center
12:43PM 34.0467 -114.9364 76° East 481 554 39,000  Level Los Angeles Center
12:44PM 34.0864 -114.7483 76° East 482 555 39,000  Level Los Angeles Center
12:45PM 34.1250 -114.5956 73° East 477 549 39,000  Level Los Angeles Center
12:46PM 34.1700 -114.4436 70° East 479 551 39,000  Level Los Angeles Center
12:47PM 34.2014 -114.3314 71° East 480 552 39,100  Climbing Albuquerque Center
12:48PM 34.2531 -114.1494 71° East 480 552 39,100  Level Albuquerque Center
12:49PM 34.2961 -113.9983 71° East 478 550 39,100  Level Albuquerque Center
12:50PM 34.3369 -113.8469 72° East 476 548 39,100  Level Albuquerque Center
12:51PM 34.3794 -113.6928 71° East 480 552 39,100 -60 Level Albuquerque Center
12:52PM 34.4261 -113.5236 71° East 480 552 39,000 -60 Descending Albuquerque Center
12:53PM 34.4678 -113.3714 72° East 479 551 39,000  Level Albuquerque Center
12:54PM 34.5081 -113.2194 72° East 478 550 39,100  Climbing Albuquerque Center
12:55PM 34.5483 -113.0667 72° East 479 551 39,100 -60 Level Albuquerque Center
12:57PM 34.6364 -112.7297 72° East 480 552 39,000 -60 Descending Albuquerque Center
12:58PM 34.6767 -112.5747 72° East 483 556 39,000  Level Albuquerque Center
12:59PM 34.7164 -112.4189 73° East 485 558 39,000  Level Albuquerque Center
01:00PM 34.7519 -112.2628 74° East 486 559 39,000  Level Albuquerque Center
01:01PM 34.7947 -112.0736 75° East 487 560 39,000  Level Albuquerque Center
01:02PM 34.8314 -111.9136 74° East 491 565 39,000  Level Albuquerque Center
01:03PM 34.8664 -111.7556 75° East 490 564 39,000  Level Albuquerque Center
01:04PM 34.9028 -111.5961 74° East 491 565 39,000  Level Albuquerque Center
01:05PM 34.9381 -111.4372 75° East 489 563 39,000  Level Albuquerque Center
01:06PM 34.9731 -111.2769 75° East 491 565 39,000  Level Albuquerque Center
01:07PM 35.0167 -111.0753 75° East 490 564 39,100  Climbing Albuquerque Center
01:08PM 35.0517 -110.9200 75° East 494 568 39,100  Level Albuquerque Center
01:09PM 35.0914 -110.7375 75° East 498 573 39,100  Level Albuquerque Center
01:11PM 35.1253 -110.5811 75° East 498 573 39,100  Level Albuquerque Center
01:12PM 35.1594 -110.4231 75° East 502 578 39,100  Level Albuquerque Center
01:13PM 35.1992 -110.2394 75° East 502 578 39,100  Level Albuquerque Center
01:14PM 35.2322 -110.0819 76° East 501 577 39,100  Level Albuquerque Center
01:15PM 35.2725 -109.8969 75° East 504 580 39,100  Level Albuquerque Center
01:16PM 35.3058 -109.7381 76° East 505 581 39,100  Level Albuquerque Center
01:17PM 35.3436 -109.5528 76° East 504 580 39,100  Level Albuquerque Center
01:18PM 35.3761 -109.3908 76° East 510 587 39,100  Level Albuquerque Center
01:19PM 35.4125 -109.2053 76° East 506 582 39,100  Level Albuquerque Center
01:20PM 35.4439 -109.0453 76° East 507 583 39,100  Level Albuquerque Center
01:21PM 35.4806 -108.8600 76° East 505 581 39,100  Level Albuquerque Center
01:22PM 35.5222 -108.7081 71° East 498 573 39,100  Level Albuquerque Center
01:23PM 35.5708 -108.5292 71° East 497 572 39,100  Level Albuquerque Center
01:24PM 35.6117 -108.3758 72° East 497 572 39,100  Level Albuquerque Center
01:25PM 35.6586 -108.1992 72° East 492 566 39,100  Level Albuquerque Center
01:26PM 35.6992 -108.0475 72° East 491 565 39,100  Level Albuquerque Center
01:27PM 35.7456 -107.8717 72° East 487 560 39,100  Level Albuquerque Center
01:28PM 35.7842 -107.7211 72° East 484 557 39,100  Level Albuquerque Center
01:29PM 35.8294 -107.5453 72° East 483 556 39,100  Level Albuquerque Center
01:30PM 35.8692 -107.3933 72° East 486 559 39,100  Level Albuquerque Center
01:31PM 35.9142 -107.2169 72° East 484 557 39,100 -60 Level Albuquerque Center
01:32PM 35.9522 -107.0736 72° East 489 563 39,000 -60 Descending Albuquerque Center
01:33PM 35.9953 -106.9136 72° East 489 563 39,000  Level Albuquerque Center
01:34PM 36.0617 -106.7311 66° East 486 559 39,100  Climbing Albuquerque Center
01:35PM 36.1189 -106.5797 65° Northeast 485 558 39,000 -60 Descending Albuquerque Center
01:36PM 36.1747 -106.4267 66° East 486 559 39,000  Level Albuquerque Center
01:37PM 36.2353 -106.2567 66° East 486 559 39,100  Climbing Albuquerque Center
01:38PM 36.2853 -106.1206 65° Northeast 486 559 39,100 -60 Level Albuquerque Center
01:39PM 36.3394 -105.9672 66° East 486 559 39,000  Descending Albuquerque Center
01:41PM 36.3906 -105.8086 68° East 493 567 39,100  Climbing Albuquerque Center
01:42PM 36.4564 -105.6228 66° East 492 566 39,000  Descending Albuquerque Center
01:43PM 36.5086 -105.4739 66° East 486 559 39,100  Climbing Albuquerque Center
01:44PM 36.5686 -105.3008 67° East 489 563 39,100  Level Albuquerque Center
01:45PM 36.6231 -105.1406 67° East 488 562 39,100  Level Albuquerque Center
01:46PM 36.6775 -104.9817 67° East 492 566 39,100  Level Albuquerque Center
01:47PM 36.7306 -104.8281 67° East 490 564 39,100  Level Albuquerque Center
01:48PM 36.7897 -104.6531 67° East 492 566 39,100  Level Albuquerque Center
01:49PM 36.8411 -104.5036 67° East 491 565 39,100  Level Albuquerque Center
01:50PM 36.9017 -104.3294 66° East 491 565 39,100  Level Albuquerque Center
01:51PM 36.9525 -104.1794 67° East 492 566 39,100  Level Albuquerque Center
01:52PM 37.0122 -104.0036 67° East 494 568 39,100  Level Albuquerque Center
01:53PM 37.0628 -103.8531 67° East 494 568 39,100  Level Albuquerque Center
01:54PM 37.1214 -103.6786 67° East 491 565 39,100  Level Albuquerque Center
01:55PM 37.1736 -103.5286 66° East 493 567 39,100  Level Albuquerque Center
01:56PM 37.2322 -103.3531 67° East 493 567 39,100  Level Albuquerque Center
01:57PM 37.2819 -103.2036 67° East 488 562 39,100  Level Albuquerque Center
01:59PM 37.3567 -102.9756 68° East 492 566 39,100  Level Albuquerque Center
02:00PM 37.4136 -102.7961 68° East 495 570 39,100  Level Albuquerque Center
02:01PM 37.4644 -102.6419 67° East 497 572 39,100  Level Albuquerque Center
02:02PM 37.5144 -102.4772 69° East 500 575 39,100  Level Denver Center
02:03PM 37.5711 -102.2944 69° East 502 578 39,100  Level Denver Center
02:04PM 37.6194 -102.1364 69° East 504 580 39,100  Level Denver Center
02:05PM 37.6772 -101.9497 69° East 511 588 39,100  Level Denver Center
02:06PM 37.7272 -101.7911 68° East 509 586 39,100  Level Denver Center
02:07PM 37.8003 -101.5506 69° East 509 586 39,100  Level Kansas City Center
02:08PM 37.8503 -101.3881 69° East 513 590 39,100  Level Kansas City Center
02:09PM 37.8839 -101.2808 68° East 512 589 39,100  Level Denver Center
02:10PM 37.9411 -101.0908 69° East 513 590 39,100  Level Denver Center
02:11PM 37.9911 -100.9269 69° East 515 593 39,100  Level Denver Center
02:11PM 38.0072 -100.8708 70° East 515 593 39,100  Level Kansas City Center
02:12PM 38.0650 -100.6806 69° East 514 592 39,100  Level Kansas City Center
02:13PM 38.1144 -100.5172 69° East 514 592 39,100  Level Kansas City Center
02:14PM 38.1711 -100.3272 69° East 514 592 39,100  Level Kansas City Center
02:15PM 38.2192 -100.1661 69° East 510 587 39,100  Level Kansas City Center
02:16PM 38.2656 -100.0022 70° East 512 589 39,100  Level Kansas City Center
02:17PM 38.3200 -99.8147 70° East 507 583 39,100  Level Kansas City Center
02:18PM 38.3669 -99.6575 69° East 500 575 39,100 -60 Level Kansas City Center
02:20PM 38.4131 -99.4939 70° East 496 571 39,000 -60 Descending Kansas City Center
02:21PM 38.4592 -99.3292 70° East 494 568 39,000  Level Kansas City Center
02:22PM 38.5158 -99.1314 70° East 494 568 39,000  Level Kansas City Center
02:23PM 38.5633 -98.9622 70° East 500 575 39,000  Level Kansas City Center
02:24PM 38.6119 -98.7922 70° East 510 587 39,000  Level Kansas City Center
02:25PM 38.6583 -98.6217 71° East 507 583 39,000  Level Kansas City Center
02:26PM 38.7056 -98.4514 70° East 506 582 39,000  Level Kansas City Center
02:27PM 38.7511 -98.2808 71° East 505 581 39,000  Level Kansas City Center
02:28PM 38.7969 -98.1100 71° East 505 581 39,000  Level Kansas City Center
02:29PM 38.8428 -97.9419 71° East 499 574 39,000  Level Kansas City Center
02:30PM 38.8928 -97.7500 71° East 500 575 39,000  Level Kansas City Center
02:31PM 38.9442 -97.5611 71° East 502 578 39,000  Level Kansas City Center
02:32PM 38.9875 -97.4006 71° East 499 574 39,000  Level Kansas City Center
02:33PM 39.0364 -97.2131 71° East 494 568 39,000  Level Kansas City Center
02:34PM 39.0772 -97.0544 72° East 491 565 39,100  Climbing Kansas City Center
02:35PM 39.1189 -96.8958 71° East 489 563 39,000 -60 Descending Kansas City Center
02:36PM 39.1667 -96.7122 71° East 485 558 39,000  Level Kansas City Center
02:37PM 39.2061 -96.5528 72° East 486 559 39,000  Level Kansas City Center
02:38PM 39.2536 -96.3664 72° East 491 565 39,100  Climbing Kansas City Center
02:39PM 39.2967 -96.2003 71° East 496 571 39,000 -60 Descending Kansas City Center
02:40PM 39.3422 -96.0128 73° East 500 575 39,000  Level Kansas City Center
02:41PM 39.3842 -95.8467 72° East 504 580 39,000  Level Kansas City Center
02:42PM 39.4253 -95.6806 72° East 506 582 39,000  Level Kansas City Center
02:43PM 39.4731 -95.4867 72° East 502 578 39,000  Level Kansas City Center
02:44PM 39.5192 -95.2956 73° East 504 580 39,100  Climbing Kansas City Center
02:45PM 39.5600 -95.1244 73° East 500 575 39,000 -60 Descending Kansas City Center
02:46PM 39.6003 -94.9578 73° East 502 578 39,000  Level Kansas City Center
02:47PM 39.6397 -94.7925 73° East 502 578 39,000  Level Kansas City Center
02:48PM 39.6853 -94.5992 73° East 500 575 39,000  Level Kansas City Center
02:49PM 39.7233 -94.4336 73° East 498 573 39,000  Level Kansas City Center
02:50PM 39.7675 -94.2425 73° East 494 568 39,000  Level Kansas City Center
02:51PM 39.8097 -94.0606 73° East 498 573 39,100  Climbing Kansas City Center
02:53PM 39.8453 -93.8989 74° East 498 573 39,000 -60 Descending Kansas City Center
02:54PM 39.8836 -93.7286 74° East 495 570 39,000  Level Kansas City Center
02:55PM 39.9236 -93.5608 73° East 492 566 39,000 -240 Level Kansas City Center
02:56PM 39.9594 -93.3939 74° East 485 558 38,600 -840 Descending Kansas City Center
02:57PM 40.0036 -93.2000 73° East 471 542 37,300 -1,320 Descending Kansas City Center
02:58PM 40.0383 -93.0386 74° East 467 537 35,900 -1,380 Descending Kansas City Center
02:59PM 40.0725 -92.8783 74° East 464 534 34,500 -1,440 Descending Kansas City Center
03:00PM 40.1114 -92.6961 74° East 466 536 33,000 -780 Descending Kansas City Center
03:01PM 40.1517 -92.5403 71° East 470 541 33,000  Level Kansas City Center
03:02PM 40.2192 -92.3642 63° Northeast 481 554 33,000  Level Kansas City Center
03:03PM 40.2706 -92.2206 65° Northeast 481 554 33,000  Level Kansas City Center
03:04PM 40.3256 -92.0658 65° Northeast 476 548 33,000  Level Kansas City Center
03:05PM 40.3794 -91.9106 65° Northeast 473 544 33,000  Level Kansas City Center
03:06PM 40.4461 -91.7239 65° Northeast 474 545 33,000  Level Kansas City Center
03:07PM 40.4881 -91.5994 66° East 471 542 33,000  Level Chicago Center
03:08PM 40.5531 -91.4125 65° Northeast 473 544 33,000  Level Chicago Center
03:09PM 40.6053 -91.2569 66° East 473 544 33,000  Level Chicago Center
03:10PM 40.6594 -91.1000 65° Northeast 471 542 33,000  Level Chicago Center
03:11PM 40.7133 -90.9419 66° East 473 544 33,000  Level Chicago Center
03:12PM 40.7675 -90.7831 66° East 474 545 33,000  Level Chicago Center
03:13PM 40.8317 -90.5917 66° East 474 545 33,000 -300 Level Chicago Center
03:14PM 40.8853 -90.4308 66° East 477 549 32,400 -1,020 Descending Chicago Center
03:15PM 40.9406 -90.2622 66° East 494 568 30,900 -1,620 Descending Chicago Center
03:16PM 40.9933 -90.0967 67° East 491 565 29,100 -1,740 Descending Chicago Center
03:17PM 41.0508 -89.9297 65° Northeast 489 563 27,400 -1,560 Descending Chicago Center
03:18PM 41.1017 -89.7747 66° East 459 528 25,900 -1,200 Descending Chicago Center
03:19PM 41.1472 -89.6344 67° East 418 481 25,000 -480 Descending Chicago Center
03:20PM 41.1750 -89.5169 73° East 345 397 25,000  Level Chicago Center
03:21PM 41.1236 -89.4028 121° Southeast 315 362 25,000  Level Chicago Center
03:22PM 41.0431 -89.3936 175° South 300 345 25,000  Level Chicago Center
03:23PM 40.9833 -89.4683 223° Southwest 308 354 25,000  Level Chicago Center
03:24PM 40.9489 -89.5853 249° West 310 357 25,000  Level Chicago Center
03:25PM 40.9175 -89.6906 248° West 312 359 25,000 -120 Level Chicago Center
03:27PM 40.9408 -89.8061 285° West 346 398 24,800 -540 Descending Chicago Center
03:28PM 41.0394 -89.8117 358° North 359 413 24,000 -420 Descending Chicago Center
03:29PM 41.0956 -89.7125 53° Northeast 337 388 24,000  Level Chicago Center
03:30PM 41.1542 -89.5992 55° Northeast 367 422 24,000 -480 Level Chicago Center
03:31PM 41.2067 -89.4778 60° Northeast 378 435 23,000 -1,380 Descending Chicago Center
03:32PM 41.2542 -89.3575 62° Northeast 371 427 21,200 -1,800 Descending Chicago Center
03:33PM 41.3017 -89.2400 62° Northeast 362 417 19,300 -2,280 Descending Chicago Center
03:34PM 41.3533 -89.1061 63° Northeast 390 449 16,500 -2,040 Descending Chicago Center
03:35PM 41.3944 -88.9625 69° East 416 479 15,200 -1,860 Descending Chicago Center
03:36PM 41.4631 -88.8092 59° Northeast 404 465 12,700 -2,040 Descending Chicago Center
03:37PM 41.5197 -88.6892 58° Northeast 386 444 11,000 -840 Descending Chicago Center
03:38PM 41.5667 -88.5750 61° Northeast 354 407 11,000 -480 Level Chicago Center
03:39PM 41.6000 -88.4744 66° East 302 348 10,100 -1,020 Descending Chicago Center
03:40PM 41.6219 -88.3711 74° East 290 334 9,000 -900 Descending Chicago Center
03:41PM 41.6414 -88.2814 74° East 254 292 8,300 -480 Descending Chicago Center
03:42PM 41.6925 -88.2017 49° Northeast 244 281 8,000 -540 Descending Chicago Center
03:43PM 41.7447 -88.1461 38° Northeast 239 275 7,300 -1,320 Descending Chicago Center
03:44PM 41.7908 -88.0906 42° Northeast 228 262 5,300 -1,740 Descending Chicago Center
03:45PM 41.8339 -88.0403 41° Northeast 216 249 3,800 -1,500 Descending Chicago Center